createdAt,value
2018-11-29T00:00:49.018Z,-2.90
2018-11-29T00:01:53.169Z,-2.80
2018-11-29T00:02:57.691Z,-2.80
2018-11-29T00:04:02.149Z,-2.80
2018-11-29T00:05:07.068Z,-2.80
2018-11-29T00:06:11.146Z,-2.80
2018-11-29T00:07:15.375Z,-2.90
2018-11-29T00:08:19.570Z,-2.80
2018-11-29T00:09:23.718Z,-2.80
2018-11-29T00:10:27.798Z,-2.90
2018-11-29T00:11:31.955Z,-2.90
2018-11-29T00:12:36.129Z,-2.90
2018-11-29T00:13:40.267Z,-2.90
2018-11-29T00:14:44.388Z,-2.90
2018-11-29T00:15:48.602Z,-2.90
2018-11-29T00:16:52.629Z,-2.90
2018-11-29T00:17:56.729Z,-2.90
2018-11-29T00:19:01.013Z,-2.90
2018-11-29T00:20:07.402Z,-2.90
2018-11-29T00:21:11.545Z,-2.90
2018-11-29T00:22:15.558Z,-2.90
2018-11-29T00:23:19.624Z,-2.90
2018-11-29T00:24:23.852Z,-2.90
2018-11-29T00:25:27.962Z,-2.90
2018-11-29T00:26:32.143Z,-2.90
2018-11-29T00:27:36.197Z,-2.90
2018-11-29T00:28:40.282Z,-2.90
2018-11-29T00:29:44.537Z,-2.90
2018-11-29T00:30:48.656Z,-2.90
2018-11-29T00:31:52.809Z,-3.00
2018-11-29T00:32:57.215Z,-3.00
2018-11-29T00:34:01.369Z,-3.00
2018-11-29T00:35:06.936Z,-3.00
2018-11-29T00:36:11.284Z,-3.10
2018-11-29T00:37:15.405Z,-3.10
2018-11-29T00:38:19.640Z,-3.10
2018-11-29T00:39:23.895Z,-3.10
2018-11-29T00:40:28.022Z,-3.10
2018-11-29T00:41:32.096Z,-3.10
2018-11-29T00:42:36.273Z,-3.10
2018-11-29T00:43:40.404Z,-3.10
2018-11-29T00:44:44.543Z,-3.10
2018-11-29T00:45:48.746Z,-3.00
2018-11-29T00:46:52.801Z,-3.10
2018-11-29T00:47:56.817Z,-3.10
2018-11-29T00:49:00.955Z,-3.00
2018-11-29T00:50:06.192Z,-3.00
2018-11-29T00:51:10.362Z,-3.00
2018-11-29T00:52:14.456Z,-3.00
2018-11-29T00:53:19.684Z,-2.90
2018-11-29T00:54:23.677Z,-3.00
2018-11-29T00:55:32.815Z,-2.90
2018-11-29T00:56:36.889Z,-3.00
2018-11-29T00:57:41.056Z,-3.00
2018-11-29T00:58:45.196Z,-3.00
2018-11-29T00:59:49.230Z,-3.00
2018-11-29T01:00:53.265Z,-3.00
2018-11-29T01:02:00.257Z,-3.00
2018-11-29T01:03:04.381Z,-3.00
2018-11-29T01:04:08.504Z,-3.00
2018-11-29T01:05:12.658Z,-3.00
2018-11-29T01:06:16.713Z,-3.00
2018-11-29T01:07:20.997Z,-2.90
2018-11-29T01:08:25.247Z,-2.90
2018-11-29T01:09:29.467Z,-2.90
2018-11-29T01:10:33.505Z,-2.90
2018-11-29T01:11:37.594Z,-2.90
2018-11-29T01:12:41.861Z,-2.90
2018-11-29T01:13:45.967Z,-3.00
2018-11-29T01:14:50.102Z,-2.90
2018-11-29T01:15:54.166Z,-2.90
2018-11-29T01:16:58.202Z,-2.90
2018-11-29T01:18:02.343Z,-2.90
2018-11-29T01:19:06.664Z,-2.90
2018-11-29T01:20:14.545Z,-2.90
2018-11-29T01:21:18.559Z,-2.90
2018-11-29T01:22:22.581Z,-2.90
2018-11-29T01:23:26.683Z,-2.90
2018-11-29T01:24:30.773Z,-2.90
2018-11-29T01:25:34.828Z,-2.90
2018-11-29T01:26:38.965Z,-3.00
2018-11-29T01:27:43.833Z,-3.00
2018-11-29T01:28:48.044Z,-3.00
2018-11-29T01:29:52.113Z,-2.90
2018-11-29T01:30:56.196Z,-2.90
2018-11-29T01:32:00.253Z,-2.90
2018-11-29T01:33:04.345Z,-2.90
2018-11-29T01:34:08.448Z,-2.90
2018-11-29T01:35:14.790Z,-2.90
2018-11-29T01:36:19.140Z,-2.90
2018-11-29T01:37:23.201Z,-3.00
2018-11-29T01:38:27.280Z,-2.90
2018-11-29T01:39:31.429Z,-3.00
2018-11-29T01:40:35.508Z,-2.90
2018-11-29T01:41:39.512Z,-3.00
2018-11-29T01:42:43.996Z,-2.90
2018-11-29T01:43:48.020Z,-2.90
2018-11-29T01:44:52.198Z,-3.00
2018-11-29T01:45:56.205Z,-3.00
2018-11-29T01:47:00.224Z,-3.00
2018-11-29T01:48:04.324Z,-3.00
2018-11-29T01:49:08.456Z,-3.00
2018-11-29T01:50:12.548Z,-3.00
2018-11-29T01:51:16.550Z,-3.00
2018-11-29T01:52:20.605Z,-3.10
2018-11-29T01:53:24.653Z,-3.10
2018-11-29T01:54:28.757Z,-3.00
2018-11-29T01:55:33.002Z,-3.00
2018-11-29T01:56:37.044Z,-3.00
2018-11-29T01:57:41.129Z,-3.00
2018-11-29T01:58:45.312Z,-3.00
2018-11-29T01:59:49.348Z,-3.10
2018-11-29T02:00:53.417Z,-3.10
2018-11-29T02:01:57.459Z,-3.10
2018-11-29T02:03:01.540Z,-3.00
2018-11-29T02:04:06.039Z,-3.00
2018-11-29T02:05:11.205Z,-3.00
2018-11-29T02:06:15.377Z,-3.00
2018-11-29T02:07:19.376Z,-3.00
2018-11-29T02:08:23.504Z,-3.00
2018-11-29T02:09:27.558Z,-3.00
2018-11-29T02:10:36.885Z,-3.00
2018-11-29T02:11:41.122Z,-3.10
2018-11-29T02:12:51.761Z,-3.10
2018-11-29T02:13:55.837Z,-3.10
2018-11-29T02:14:59.916Z,-3.10
2018-11-29T02:16:04.120Z,-3.20
2018-11-29T02:17:08.290Z,-3.20
2018-11-29T02:18:12.434Z,-3.20
2018-11-29T02:19:16.591Z,-3.20
2018-11-29T02:20:20.920Z,-3.20
2018-11-29T02:21:25.440Z,-3.30
2018-11-29T02:22:29.572Z,-3.30
2018-11-29T02:23:33.689Z,-3.30
2018-11-29T02:24:37.717Z,-3.30
2018-11-29T02:25:41.665Z,-3.30
2018-11-29T02:26:45.709Z,-3.30
2018-11-29T02:27:49.855Z,-3.40
2018-11-29T02:28:53.926Z,-3.40
2018-11-29T02:29:57.930Z,-3.40
2018-11-29T02:31:01.990Z,-3.30
2018-11-29T02:32:06.060Z,-3.30
2018-11-29T02:33:10.105Z,-3.40
2018-11-29T02:34:14.145Z,-3.40
2018-11-29T02:35:18.315Z,-3.40
2018-11-29T02:36:22.518Z,-3.40
2018-11-29T02:37:26.659Z,-3.40
2018-11-29T02:38:30.917Z,-3.40
2018-11-29T02:39:35.004Z,-3.40
2018-11-29T02:40:39.247Z,-3.40
2018-11-29T02:41:43.322Z,-3.40
2018-11-29T02:42:48.534Z,-3.40
2018-11-29T02:43:52.772Z,-3.40
2018-11-29T02:44:56.860Z,-3.40
2018-11-29T02:46:01.025Z,-3.40
2018-11-29T02:47:05.079Z,-3.40
2018-11-29T02:48:09.212Z,-3.40
2018-11-29T02:49:13.286Z,-3.40
2018-11-29T02:50:17.399Z,-3.40
2018-11-29T02:51:21.478Z,-3.40
2018-11-29T02:52:25.604Z,-3.40
2018-11-29T02:53:29.697Z,-3.40
2018-11-29T02:54:33.789Z,-3.40
2018-11-29T02:55:37.791Z,-3.40
2018-11-29T02:56:46.048Z,-3.40
2018-11-29T02:57:50.141Z,-3.40
2018-11-29T02:58:54.166Z,-3.40
2018-11-29T02:59:58.369Z,-3.40
2018-11-29T03:01:05.509Z,-3.40
2018-11-29T03:02:09.525Z,-3.30
2018-11-29T03:03:13.697Z,-3.40
2018-11-29T03:04:18.044Z,-3.40
2018-11-29T03:05:22.220Z,-3.30
2018-11-29T03:06:26.325Z,-3.30
2018-11-29T03:07:30.328Z,-3.30
2018-11-29T03:08:34.470Z,-3.30
2018-11-29T03:09:38.542Z,-3.40
2018-11-29T03:10:42.633Z,-3.40
2018-11-29T03:11:46.767Z,-3.40
2018-11-29T03:12:50.892Z,-3.40
2018-11-29T03:13:54.892Z,-3.40
2018-11-29T03:14:58.877Z,-3.40
2018-11-29T03:16:02.961Z,-3.30
2018-11-29T03:17:07.375Z,-3.30
2018-11-29T03:18:13.341Z,-3.30
2018-11-29T03:19:17.464Z,-3.30
2018-11-29T03:20:21.504Z,-3.30
2018-11-29T03:21:25.593Z,-3.30
2018-11-29T03:22:29.690Z,-3.30
2018-11-29T03:23:33.738Z,-3.30
2018-11-29T03:24:37.800Z,-3.30
2018-11-29T03:25:41.961Z,-3.30
2018-11-29T03:26:46.016Z,-3.30
2018-11-29T03:27:50.352Z,-3.30
2018-11-29T03:28:54.469Z,-3.30
2018-11-29T03:29:58.589Z,-3.30
2018-11-29T03:31:02.615Z,-3.30
2018-11-29T03:32:07.050Z,-3.30
2018-11-29T03:33:11.254Z,-3.20
2018-11-29T03:34:15.453Z,-3.20
2018-11-29T03:35:19.617Z,-3.20
2018-11-29T03:36:23.658Z,-3.30
2018-11-29T03:37:27.805Z,-3.30
2018-11-29T03:38:31.877Z,-3.20
2018-11-29T03:39:36.000Z,-3.20
2018-11-29T03:40:40.217Z,-3.30
2018-11-29T03:41:44.365Z,-3.20
2018-11-29T03:42:48.523Z,-3.20
2018-11-29T03:43:52.681Z,-3.20
2018-11-29T03:44:56.717Z,-3.20
2018-11-29T03:46:00.780Z,-3.20
2018-11-29T03:47:04.838Z,-3.20
2018-11-29T03:48:09.088Z,-3.30
2018-11-29T03:49:13.073Z,-3.30
2018-11-29T03:50:17.980Z,-3.30
2018-11-29T03:51:22.029Z,-3.20
2018-11-29T03:52:26.038Z,-3.30
2018-11-29T03:53:30.244Z,-3.30
2018-11-29T03:54:34.444Z,-3.30
2018-11-29T03:55:38.529Z,-3.30
2018-11-29T03:56:42.725Z,-3.30
2018-11-29T03:57:46.842Z,-3.30
2018-11-29T03:58:51.049Z,-3.30
2018-11-29T03:59:55.199Z,-3.30
2018-11-29T04:00:59.395Z,-3.20
2018-11-29T04:02:03.683Z,-3.20
2018-11-29T04:03:08.080Z,-3.20
2018-11-29T04:04:12.141Z,-3.20
2018-11-29T04:05:16.299Z,-3.20
2018-11-29T04:06:20.369Z,-3.20
2018-11-29T04:07:24.435Z,-3.20
2018-11-29T04:08:28.462Z,-3.20
2018-11-29T04:09:32.578Z,-3.20
2018-11-29T04:10:36.609Z,-3.20
2018-11-29T04:11:40.574Z,-3.10
2018-11-29T04:12:44.680Z,-3.10
2018-11-29T04:13:48.730Z,-3.10
2018-11-29T04:14:52.871Z,-3.10
2018-11-29T04:15:56.960Z,-3.10
2018-11-29T04:17:01.016Z,-3.10
2018-11-29T04:18:05.577Z,-3.20
2018-11-29T04:19:09.723Z,-3.10
2018-11-29T04:20:16.616Z,-3.10
2018-11-29T04:21:20.632Z,-3.10
2018-11-29T04:22:24.657Z,-3.10
2018-11-29T04:23:28.697Z,-3.10
2018-11-29T04:24:32.653Z,-3.10
2018-11-29T04:25:36.804Z,-3.00
2018-11-29T04:26:40.958Z,-3.00
2018-11-29T04:27:45.041Z,-3.10
2018-11-29T04:28:49.105Z,-3.00
2018-11-29T04:29:53.120Z,-3.00
2018-11-29T04:30:57.265Z,-3.00
2018-11-29T04:32:01.382Z,-3.00
2018-11-29T04:33:05.649Z,-3.00
2018-11-29T04:34:09.676Z,-3.00
2018-11-29T04:35:14.425Z,-3.00
2018-11-29T04:36:18.528Z,-3.00
2018-11-29T04:37:22.679Z,-3.00
2018-11-29T04:38:26.801Z,-3.00
2018-11-29T04:39:30.817Z,-3.00
2018-11-29T04:40:34.930Z,-3.00
2018-11-29T04:41:39.022Z,-3.00
2018-11-29T04:42:43.079Z,-3.00
2018-11-29T04:43:47.229Z,-3.00
2018-11-29T04:44:57.329Z,-3.00
2018-11-29T04:46:43.862Z,-3.00
2018-11-29T04:47:48.102Z,-3.00
2018-11-29T04:48:52.178Z,-2.90
2018-11-29T04:49:56.221Z,-2.90
2018-11-29T04:51:00.337Z,-2.90
2018-11-29T04:52:04.525Z,-2.90
2018-11-29T04:53:08.609Z,-2.90
2018-11-29T04:54:12.814Z,-2.90
2018-11-29T04:55:16.826Z,-2.90
2018-11-29T04:56:20.853Z,-2.90
2018-11-29T04:57:24.902Z,-2.90
2018-11-29T04:58:29.043Z,-2.90
2018-11-29T04:59:33.132Z,-2.90
2018-11-29T05:00:37.140Z,-2.90
2018-11-29T05:01:41.264Z,-2.90
2018-11-29T05:02:45.435Z,-2.90
2018-11-29T05:03:50.375Z,-2.90
2018-11-29T05:04:54.445Z,-2.90
2018-11-29T05:05:58.613Z,-2.90
2018-11-29T05:07:02.698Z,-2.90
2018-11-29T05:08:07.208Z,-2.90
2018-11-29T05:09:12.040Z,-2.80
2018-11-29T05:10:17.860Z,-2.80
2018-11-29T05:11:21.953Z,-2.80
2018-11-29T05:12:26.014Z,-2.80
2018-11-29T05:13:30.085Z,-2.80
2018-11-29T05:14:34.229Z,-2.80
2018-11-29T05:15:38.312Z,-2.80
2018-11-29T05:16:42.520Z,-2.80
2018-11-29T05:17:46.815Z,-2.80
2018-11-29T05:18:50.941Z,-2.80
2018-11-29T05:19:54.928Z,-2.80
2018-11-29T05:20:58.963Z,-2.80
2018-11-29T05:22:04.201Z,-2.80
2018-11-29T05:23:08.323Z,-2.80
2018-11-29T05:24:12.885Z,-2.80
2018-11-29T05:25:22.223Z,-2.80
2018-11-29T05:26:26.345Z,-2.70
2018-11-29T05:27:30.508Z,-2.80
2018-11-29T05:28:34.871Z,-2.70
2018-11-29T05:29:39.117Z,-2.80
2018-11-29T05:30:43.320Z,-2.80
2018-11-29T05:31:47.588Z,-2.80
2018-11-29T05:32:51.637Z,-2.80
2018-11-29T05:33:55.648Z,-2.70
2018-11-29T05:34:59.768Z,-2.80
2018-11-29T05:36:08.937Z,-2.70
2018-11-29T05:37:13.022Z,-2.80
2018-11-29T05:38:17.164Z,-2.80
2018-11-29T05:39:21.325Z,-2.80
2018-11-29T05:40:25.634Z,-2.80
2018-11-29T05:41:29.833Z,-2.80
2018-11-29T05:42:33.998Z,-2.80
2018-11-29T05:43:38.153Z,-2.80
2018-11-29T05:44:42.364Z,-2.80
2018-11-29T05:45:46.602Z,-2.80
2018-11-29T05:46:50.767Z,-2.80
2018-11-29T05:47:54.821Z,-2.80
2018-11-29T05:48:59.081Z,-2.80
2018-11-29T05:50:03.209Z,-2.80
2018-11-29T05:51:07.540Z,-2.80
2018-11-29T05:52:11.740Z,-2.80
2018-11-29T05:53:15.822Z,-2.80
2018-11-29T05:54:19.957Z,-2.80
2018-11-29T05:55:24.081Z,-2.90
2018-11-29T05:56:28.297Z,-2.90
2018-11-29T05:57:32.583Z,-2.90
2018-11-29T05:58:36.724Z,-2.90
2018-11-29T05:59:40.739Z,-2.90
2018-11-29T06:00:47.878Z,-2.90
2018-11-29T06:01:53.199Z,-2.90
2018-11-29T06:02:57.531Z,-2.90
2018-11-29T06:04:01.862Z,-2.90
2018-11-29T06:05:06.796Z,-2.90
2018-11-29T06:06:10.898Z,-2.90
2018-11-29T06:08:24.383Z,-2.90
2018-11-29T06:09:28.607Z,-2.90
2018-11-29T06:10:32.841Z,-3.00
2018-11-29T06:11:37.406Z,-3.00
2018-11-29T06:12:41.495Z,-3.00
2018-11-29T06:13:45.680Z,-3.00
2018-11-29T06:14:50.112Z,-3.10
2018-11-29T06:15:54.257Z,-3.10
2018-11-29T06:16:58.563Z,-3.00
2018-11-29T06:18:02.703Z,-3.10
2018-11-29T06:19:08.370Z,-3.10
2018-11-29T06:20:17.637Z,-3.20
2018-11-29T06:21:21.712Z,-3.20
2018-11-29T06:22:25.980Z,-3.20
2018-11-29T06:23:30.287Z,-3.20
2018-11-29T06:24:39.459Z,-3.20
2018-11-29T06:25:43.799Z,-3.20
2018-11-29T06:26:48.138Z,-3.20
2018-11-29T06:27:52.770Z,-3.20
2018-11-29T06:28:57.724Z,-3.30
2018-11-29T06:30:02.079Z,-3.30
2018-11-29T06:31:06.529Z,-3.30
2018-11-29T06:32:10.943Z,-3.30
2018-11-29T06:33:15.033Z,-3.40
2018-11-29T06:34:19.306Z,-3.40
2018-11-29T06:35:23.505Z,-3.40
2018-11-29T06:36:27.636Z,-3.40
2018-11-29T06:37:31.789Z,-3.50
2018-11-29T06:38:35.999Z,-3.50
2018-11-29T06:39:40.228Z,-3.50
2018-11-29T06:40:44.460Z,-3.50
2018-11-29T06:41:48.646Z,-3.50
2018-11-29T06:42:52.888Z,-3.50
2018-11-29T06:43:56.944Z,-3.50
2018-11-29T06:45:01.141Z,-3.50
2018-11-29T06:46:05.585Z,-3.50
2018-11-29T06:47:09.829Z,-3.50
2018-11-29T06:48:13.988Z,-3.50
2018-11-29T06:49:18.176Z,-3.50
2018-11-29T06:50:22.347Z,-3.50
2018-11-29T06:51:26.504Z,-3.50
2018-11-29T06:52:30.542Z,-3.50
2018-11-29T06:53:39.854Z,-3.50
2018-11-29T06:54:44.016Z,-3.50
2018-11-29T06:55:48.201Z,-3.50
2018-11-29T06:56:52.317Z,-3.50
2018-11-29T06:57:56.384Z,-3.50
2018-11-29T06:59:00.473Z,-3.50
2018-11-29T07:00:06.988Z,-3.50
2018-11-29T07:01:11.264Z,-3.50
2018-11-29T07:02:15.433Z,-3.50
2018-11-29T07:03:19.672Z,-3.60
2018-11-29T07:04:23.836Z,-3.50
2018-11-29T07:05:27.890Z,-3.50
2018-11-29T07:06:32.060Z,-3.50
2018-11-29T07:07:36.181Z,-3.50
2018-11-29T07:08:40.176Z,-3.50
2018-11-29T07:09:44.597Z,-3.50
2018-11-29T07:10:48.764Z,-3.50
2018-11-29T07:11:52.988Z,-3.50
2018-11-29T07:12:57.084Z,-3.50
2018-11-29T07:14:01.314Z,-3.50
2018-11-29T07:15:07.064Z,-3.50
2018-11-29T07:16:11.313Z,-3.50
2018-11-29T07:17:15.483Z,-3.50
2018-11-29T07:18:19.831Z,-3.50
2018-11-29T07:19:24.009Z,-3.50
2018-11-29T07:20:33.364Z,-3.50
2018-11-29T07:21:55.885Z,-3.50
2018-11-29T07:23:00.044Z,-3.50
2018-11-29T07:24:04.231Z,-3.40
2018-11-29T07:25:09.247Z,-3.40
2018-11-29T07:26:13.368Z,-3.40
2018-11-29T07:27:17.497Z,-3.40
2018-11-29T07:28:21.621Z,-3.40
2018-11-29T07:29:26.095Z,-3.40
2018-11-29T07:30:30.285Z,-3.40
2018-11-29T07:31:34.443Z,-3.40
2018-11-29T07:32:38.693Z,-3.40
2018-11-29T07:33:42.873Z,-3.40
2018-11-29T07:34:47.215Z,-3.40
2018-11-29T07:35:51.379Z,-3.40
2018-11-29T07:36:55.520Z,-3.30
2018-11-29T07:37:59.741Z,-3.30
2018-11-29T07:39:05.101Z,-3.30
2018-11-29T07:40:11.784Z,-3.30
2018-11-29T07:41:15.990Z,-3.30
2018-11-29T07:42:20.227Z,-3.30
2018-11-29T07:43:24.298Z,-3.30
2018-11-29T07:44:28.515Z,-3.20
2018-11-29T07:45:32.663Z,-3.20
2018-11-29T07:46:36.905Z,-3.20
2018-11-29T07:47:41.180Z,-3.20
2018-11-29T07:48:45.341Z,-3.20
2018-11-29T07:49:49.625Z,-3.20
2018-11-29T07:50:53.833Z,-3.20
2018-11-29T07:51:58.022Z,-3.20
2018-11-29T07:53:03.030Z,-3.10
2018-11-29T07:54:07.317Z,-3.10
2018-11-29T07:55:13.927Z,-3.10
2018-11-29T07:56:18.138Z,-3.10
2018-11-29T07:57:22.367Z,-3.10
2018-11-29T07:58:26.526Z,-3.10
2018-11-29T07:59:30.639Z,-3.20
2018-11-29T08:00:34.843Z,-3.20
2018-11-29T08:01:38.999Z,-3.10
2018-11-29T08:02:43.218Z,-3.10
2018-11-29T08:03:47.438Z,-3.10
2018-11-29T08:04:51.689Z,-3.10
2018-11-29T08:05:59.804Z,-3.10
2018-11-29T08:07:03.969Z,-3.10
2018-11-29T08:08:08.237Z,-3.00
2018-11-29T08:09:12.430Z,-3.00
2018-11-29T08:10:18.290Z,-3.00
2018-11-29T08:11:22.527Z,-3.00
2018-11-29T08:12:26.782Z,-3.00
2018-11-29T08:13:30.937Z,-3.00
2018-11-29T08:14:35.095Z,-3.00
2018-11-29T08:15:43.049Z,-3.00
2018-11-29T08:16:47.329Z,-3.00
2018-11-29T08:17:51.420Z,-3.00
2018-11-29T08:18:55.455Z,-3.00
2018-11-29T08:19:59.577Z,-3.00
2018-11-29T08:21:06.514Z,-3.00
2018-11-29T08:22:10.845Z,-3.00
2018-11-29T08:23:15.028Z,-3.00
2018-11-29T08:24:24.122Z,-3.00
2018-11-29T08:25:28.315Z,-3.00
2018-11-29T08:26:32.377Z,-3.00
2018-11-29T08:27:36.542Z,-3.00
2018-11-29T08:28:40.628Z,-3.00
2018-11-29T08:29:44.789Z,-3.10
2018-11-29T08:30:48.937Z,-3.00
2018-11-29T08:31:53.207Z,-3.00
2018-11-29T08:32:57.589Z,-3.10
2018-11-29T08:34:01.608Z,-3.00
2018-11-29T08:35:08.233Z,-3.10
2018-11-29T08:36:12.482Z,-3.10
2018-11-29T08:37:16.662Z,-3.00
2018-11-29T08:38:20.858Z,-3.00
2018-11-29T08:39:24.950Z,-3.10
2018-11-29T08:40:29.062Z,-3.00
2018-11-29T08:41:33.150Z,-3.00
2018-11-29T08:42:37.299Z,-3.00
2018-11-29T08:43:41.341Z,-3.00
2018-11-29T08:44:45.557Z,-3.00
2018-11-29T08:45:49.721Z,-3.00
2018-11-29T08:46:53.888Z,-2.90
2018-11-29T08:47:57.971Z,-3.00
2018-11-29T08:49:02.175Z,-3.00
2018-11-29T08:50:12.291Z,-2.90
2018-11-29T08:51:16.433Z,-2.90
2018-11-29T08:52:20.566Z,-2.90
2018-11-29T08:53:24.596Z,-2.90
2018-11-29T08:54:28.668Z,-2.90
2018-11-29T08:55:32.958Z,-2.90
2018-11-29T08:56:37.009Z,-2.90
2018-11-29T08:57:41.163Z,-2.90
2018-11-29T08:58:45.269Z,-2.90
2018-11-29T08:59:49.433Z,-2.90
2018-11-29T09:00:53.473Z,-2.90
2018-11-29T09:01:57.489Z,-2.90
2018-11-29T09:03:01.548Z,-2.80
2018-11-29T09:04:06.126Z,-2.80
2018-11-29T09:05:11.167Z,-2.80
2018-11-29T09:06:15.234Z,-2.80
2018-11-29T09:07:19.232Z,-2.80
2018-11-29T09:08:23.297Z,-2.80
2018-11-29T09:09:27.509Z,-2.80
2018-11-29T09:10:31.983Z,-2.80
2018-11-29T09:11:35.949Z,-2.80
2018-11-29T09:12:43.068Z,-2.70
2018-11-29T09:13:47.137Z,-2.70
2018-11-29T09:14:51.190Z,-2.70
2018-11-29T09:15:55.313Z,-2.70
2018-11-29T09:16:59.438Z,-2.60
2018-11-29T09:18:04.241Z,-2.60
2018-11-29T09:19:08.311Z,-2.60
2018-11-29T09:20:14.401Z,-2.60
2018-11-29T09:21:18.508Z,-2.60
2018-11-29T09:22:22.686Z,-2.60
2018-11-29T09:23:26.749Z,-2.60
2018-11-29T09:24:31.092Z,-2.60
2018-11-29T09:25:35.225Z,-2.60
2018-11-29T09:26:39.321Z,-2.50
2018-11-29T09:27:43.748Z,-2.50
2018-11-29T09:28:47.825Z,-2.50
2018-11-29T09:29:51.902Z,-2.60
2018-11-29T09:30:55.972Z,-2.50
2018-11-29T09:32:00.166Z,-2.50
2018-11-29T09:33:04.281Z,-2.50
2018-11-29T09:34:08.469Z,-2.50
2018-11-29T09:35:12.678Z,-2.40
2018-11-29T09:36:16.981Z,-2.40
2018-11-29T09:37:21.173Z,-2.40
2018-11-29T09:38:25.183Z,-2.40
2018-11-29T09:39:29.297Z,-2.30
2018-11-29T09:40:33.525Z,-2.40
2018-11-29T09:41:37.964Z,-2.30
2018-11-29T09:42:42.429Z,-2.30
2018-11-29T09:43:49.574Z,-2.30
2018-11-29T09:44:53.667Z,-2.30
2018-11-29T09:46:00.888Z,-2.30
2018-11-29T09:47:04.975Z,-2.30
2018-11-29T09:48:09.122Z,-2.20
2018-11-29T09:49:13.233Z,-2.20
2018-11-29T09:50:17.846Z,-2.20
2018-11-29T09:51:21.898Z,-2.20
2018-11-29T09:52:26.000Z,-2.20
2018-11-29T09:53:30.087Z,-2.20
2018-11-29T09:54:34.209Z,-2.20
2018-11-29T09:55:39.868Z,-2.20
2018-11-29T09:56:47.132Z,-2.10
2018-11-29T09:57:55.284Z,-2.10
2018-11-29T09:59:02.125Z,-2.10
2018-11-29T10:00:15.159Z,-2.10
2018-11-29T10:01:20.537Z,-2.10
2018-11-29T10:02:24.588Z,-2.10
2018-11-29T10:03:28.811Z,-2.10
2018-11-29T10:04:32.950Z,-2.10
2018-11-29T10:05:37.210Z,-2.10
2018-11-29T10:06:41.313Z,-2.10
2018-11-29T10:07:45.398Z,-2.10
2018-11-29T10:08:56.073Z,-2.20
2018-11-29T10:10:00.293Z,-2.10
2018-11-29T10:11:04.689Z,-2.20
2018-11-29T10:12:09.121Z,-2.10
2018-11-29T10:13:13.303Z,-2.20
2018-11-29T10:14:17.588Z,-2.20
2018-11-29T10:15:21.878Z,-2.20
2018-11-29T10:16:26.034Z,-2.20
2018-11-29T10:17:30.237Z,-2.20
2018-11-29T10:18:34.437Z,-2.20
2018-11-29T10:19:38.518Z,-2.20
2018-11-29T10:20:43.680Z,-2.20
2018-11-29T10:21:53.053Z,-2.20
2018-11-29T10:22:57.229Z,-2.20
2018-11-29T10:24:01.537Z,-2.10
2018-11-29T10:25:08.420Z,-2.10
2018-11-29T10:26:12.669Z,-2.10
2018-11-29T10:27:16.867Z,-2.00
2018-11-29T10:28:21.473Z,-2.00
2018-11-29T10:29:25.953Z,-2.00
2018-11-29T10:30:35.153Z,-2.00
2018-11-29T10:31:39.402Z,-2.00
2018-11-29T10:32:43.599Z,-2.00
2018-11-29T10:33:47.723Z,-2.00
2018-11-29T10:34:51.712Z,-2.00
2018-11-29T10:35:58.837Z,-2.00
2018-11-29T10:37:02.930Z,-2.00
2018-11-29T10:38:07.210Z,-2.00
2018-11-29T10:39:11.400Z,-2.00
2018-11-29T10:40:15.701Z,-2.00
2018-11-29T10:41:21.027Z,-1.90
2018-11-29T10:42:25.234Z,-1.90
2018-11-29T10:43:29.343Z,-1.90
2018-11-29T10:44:33.417Z,-1.90
2018-11-29T10:45:37.493Z,-2.00
2018-11-29T10:46:41.657Z,-2.00
2018-11-29T10:47:52.200Z,-2.00
2018-11-29T10:48:51.385Z,-2.00
2018-11-29T10:49:55.610Z,-2.00
2018-11-29T10:50:59.741Z,-2.00
2018-11-29T10:52:04.251Z,-1.90
2018-11-29T10:53:09.542Z,-1.90
2018-11-29T10:54:16.817Z,-1.80
2018-11-29T10:55:19.074Z,-1.80
2018-11-29T10:56:23.262Z,-1.80
2018-11-29T10:57:27.415Z,-1.80
2018-11-29T10:58:31.892Z,-1.80
2018-11-29T10:59:35.989Z,-1.80
2018-11-29T11:00:45.286Z,-1.90
2018-11-29T11:01:54.686Z,-1.80
2018-11-29T11:03:08.117Z,-1.80
2018-11-29T11:04:12.430Z,-1.80
2018-11-29T11:05:16.787Z,-1.80
2018-11-29T11:06:21.219Z,-1.70
2018-11-29T11:07:25.426Z,-1.70
2018-11-29T11:08:29.609Z,-1.60
2018-11-29T11:09:33.814Z,-1.40
2018-11-29T11:10:38.903Z,-1.30
2018-11-29T11:11:43.101Z,-1.20
2018-11-29T11:12:47.370Z,-1.10
2018-11-29T11:13:51.581Z,-0.90
2018-11-29T11:14:55.780Z,-0.80
2018-11-29T11:15:59.886Z,-0.60
2018-11-29T11:17:04.044Z,-0.60
2018-11-29T11:18:09.268Z,-0.60
2018-11-29T11:19:13.416Z,-0.70
2018-11-29T11:20:17.606Z,-0.80
2018-11-29T11:21:21.785Z,-0.70
2018-11-29T11:22:25.984Z,-0.70
2018-11-29T11:23:30.218Z,-0.70
2018-11-29T11:24:34.407Z,-0.70
2018-11-29T11:25:38.664Z,-0.70
2018-11-29T11:26:42.845Z,-0.80
2018-11-29T11:27:47.071Z,-0.80
2018-11-29T11:28:51.307Z,-0.90
2018-11-29T11:29:55.494Z,-0.90
2018-11-29T11:30:59.673Z,-1.00
2018-11-29T11:32:03.900Z,-0.90
2018-11-29T11:33:08.130Z,-0.80
2018-11-29T11:34:12.533Z,-0.70
2018-11-29T11:35:16.762Z,-0.60
2018-11-29T11:36:20.955Z,-0.50
2018-11-29T11:37:25.058Z,-0.30
2018-11-29T11:38:34.369Z,0.00
2018-11-29T11:39:38.560Z,0.30
2018-11-29T11:40:42.882Z,0.70
2018-11-29T11:41:47.075Z,1.10
2018-11-29T11:42:51.288Z,1.70
2018-11-29T11:43:56.100Z,2.20
2018-11-29T11:45:00.443Z,2.50
2018-11-29T11:46:04.595Z,2.60
2018-11-29T11:47:08.934Z,2.80
2018-11-29T11:48:13.229Z,3.00
2018-11-29T11:49:17.290Z,3.40
2018-11-29T11:50:24.499Z,3.70
2018-11-29T11:51:28.697Z,4.00
2018-11-29T11:52:33.564Z,3.90
2018-11-29T11:53:37.550Z,3.60
2018-11-29T11:54:41.446Z,3.70
2018-11-29T11:55:45.687Z,3.40
2018-11-29T11:56:49.830Z,2.80
2018-11-29T11:57:54.153Z,2.40
2018-11-29T11:58:58.429Z,2.10
2018-11-29T12:00:07.662Z,1.70
2018-11-29T12:01:11.862Z,1.20
2018-11-29T12:02:16.101Z,0.80
2018-11-29T12:03:20.169Z,0.50
2018-11-29T12:04:24.419Z,0.20
2018-11-29T12:05:28.654Z,-0.10
2018-11-29T12:06:33.013Z,-0.20
2018-11-29T12:07:37.382Z,-0.40
2018-11-29T12:08:41.623Z,-0.50
2018-11-29T12:09:45.761Z,-0.60
2018-11-29T12:10:49.939Z,-0.80
2018-11-29T12:11:54.069Z,-0.90
2018-11-29T12:12:58.265Z,-1.00
2018-11-29T12:14:02.540Z,-1.00
2018-11-29T12:15:09.182Z,-1.00
2018-11-29T12:16:13.323Z,-1.00
2018-11-29T12:17:17.515Z,-1.10
2018-11-29T12:18:21.717Z,-1.10
2018-11-29T12:19:25.969Z,-1.20
2018-11-29T12:20:30.172Z,-1.20
2018-11-29T12:21:34.334Z,-1.20
2018-11-29T12:22:38.489Z,-1.20
2018-11-29T12:23:42.645Z,-1.20
2018-11-29T12:24:46.888Z,-1.20
2018-11-29T12:25:51.006Z,-1.20
2018-11-29T12:26:55.120Z,-1.30
2018-11-29T12:27:59.346Z,-1.30
2018-11-29T12:29:03.478Z,-1.30
2018-11-29T12:30:11.852Z,-1.30
2018-11-29T12:31:16.089Z,-1.30
2018-11-29T12:32:20.423Z,-1.30
2018-11-29T12:33:24.650Z,-1.30
2018-11-29T12:34:28.689Z,-1.30
2018-11-29T12:35:33.029Z,-1.30
2018-11-29T12:36:37.188Z,-1.30
2018-11-29T12:37:41.375Z,-1.30
2018-11-29T12:38:45.537Z,-1.30
2018-11-29T12:39:49.783Z,-1.30
2018-11-29T12:40:59.019Z,-1.30
2018-11-29T12:42:03.214Z,-1.30
2018-11-29T12:43:07.685Z,-1.30
2018-11-29T12:44:11.923Z,-1.30
2018-11-29T12:45:16.161Z,-1.30
2018-11-29T12:46:21.574Z,-1.30
2018-11-29T12:47:24.416Z,-1.30
2018-11-29T12:48:28.599Z,-1.30
2018-11-29T12:49:32.761Z,-1.30
2018-11-29T12:50:39.042Z,-1.30
2018-11-29T12:51:49.178Z,-1.30
2018-11-29T12:52:53.415Z,-1.40
2018-11-29T12:53:57.675Z,-1.40
2018-11-29T12:55:01.962Z,-1.40
2018-11-29T12:56:06.140Z,-1.40
2018-11-29T12:57:10.392Z,-1.40
2018-11-29T12:58:14.570Z,-1.40
2018-11-29T12:59:18.737Z,-1.40
2018-11-29T13:00:24.706Z,-1.40
2018-11-29T13:01:31.669Z,-1.40
2018-11-29T13:02:36.030Z,-1.40
2018-11-29T13:03:40.103Z,-1.40
2018-11-29T13:04:44.320Z,-1.50
2018-11-29T13:17:20.623Z,-1.60
2018-11-29T13:18:24.805Z,-1.50
2018-11-29T13:19:29.033Z,-1.50
2018-11-29T13:20:33.166Z,-1.50
2018-11-29T13:21:37.490Z,-1.50
2018-11-29T13:22:41.798Z,-1.50
2018-11-29T13:23:46.053Z,-1.50
2018-11-29T13:24:51.508Z,-1.50
2018-11-29T13:25:55.978Z,-1.50
2018-11-29T13:27:00.142Z,-1.50
2018-11-29T13:28:04.554Z,-1.50
2018-11-29T13:29:08.758Z,-1.50
2018-11-29T13:30:18.381Z,-1.50
2018-11-29T13:31:22.669Z,-1.60
2018-11-29T13:32:26.877Z,-1.50
2018-11-29T13:33:31.158Z,-1.50
2018-11-29T13:34:35.342Z,-1.50
2018-11-29T13:35:39.546Z,-1.60
2018-11-29T13:36:43.742Z,-1.60
2018-11-29T13:37:58.901Z,-1.60
2018-11-29T13:39:03.105Z,-1.60
2018-11-29T13:40:10.698Z,-1.60
2018-11-29T13:41:15.141Z,-1.60
2018-11-29T13:42:19.427Z,-1.60
2018-11-29T13:43:23.670Z,-1.60
2018-11-29T13:44:27.918Z,-1.60
2018-11-29T13:45:32.962Z,-1.60
2018-11-29T13:46:37.226Z,-1.60
2018-11-29T13:47:41.929Z,-1.60
2018-11-29T13:48:46.092Z,-1.60
2018-11-29T13:49:50.491Z,-1.60
2018-11-29T13:50:54.567Z,-1.60
2018-11-29T13:51:58.904Z,-1.60
2018-11-29T13:53:04.338Z,-1.60
2018-11-29T13:54:08.603Z,-1.60
2018-11-29T13:55:13.846Z,-1.60
2018-11-29T13:56:18.058Z,-1.60
2018-11-29T13:57:22.300Z,-1.60
2018-11-29T13:58:26.464Z,-1.60
2018-11-29T13:59:30.666Z,-1.70
2018-11-29T14:00:34.898Z,-1.70
2018-11-29T14:01:39.064Z,-1.70
2018-11-29T14:02:46.941Z,-1.70
2018-11-29T14:03:47.749Z,-1.70
2018-11-29T14:04:51.846Z,-1.70
2018-11-29T14:05:56.053Z,-1.70